sensor_id;sensor_type;location;lat;lon;timestamp;temperature;humidity
65864;SHT30;52639;51.180;20.460;2022-12-17T00:01:04;-3.88;98.06
65864;SHT30;52639;51.180;20.460;2022-12-17T00:05:25;-3.86;97.93
65864;SHT30;52639;51.180;20.460;2022-12-17T00:09:45;-3.92;98.15
65864;SHT30;52639;51.180;20.460;2022-12-17T00:14:05;-3.89;98.32
65864;SHT30;52639;51.180;20.460;2022-12-17T00:18:25;-3.89;98.08
65864;SHT30;52639;51.180;20.460;2022-12-17T00:22:46;-3.92;98.08
65864;SHT30;52639;51.180;20.460;2022-12-17T00:27:06;-3.91;98.06
65864;SHT30;52639;51.180;20.460;2022-12-17T00:31:28;-3.92;98.14
65864;SHT30;52639;51.180;20.460;2022-12-17T00:35:50;-3.99;98.42
65864;SHT30;52639;51.180;20.460;2022-12-17T00:40:12;-3.96;98.46
65864;SHT30;52639;51.180;20.460;2022-12-17T00:44:32;-3.98;98.59
65864;SHT30;52639;51.180;20.460;2022-12-17T00:48:51;-3.96;98.30
65864;SHT30;52639;51.180;20.460;2022-12-17T00:53:11;-3.95;98.34
65864;SHT30;52639;51.180;20.460;2022-12-17T00:57:32;-3.98;98.30
65864;SHT30;52639;51.180;20.460;2022-12-17T01:01:52;-3.94;98.30
65864;SHT30;52639;51.180;20.460;2022-12-17T01:06:12;-3.92;98.26
65864;SHT30;52639;51.180;20.460;2022-12-17T01:10:32;-3.96;98.16
65864;SHT30;52639;51.180;20.460;2022-12-17T01:14:53;-3.99;98.34
65864;SHT30;52639;51.180;20.460;2022-12-17T01:19:13;-3.99;98.47
65864;SHT30;52639;51.180;20.460;2022-12-17T01:23:32;-3.98;98.34
65864;SHT30;52639;51.180;20.460;2022-12-17T01:27:52;-3.99;98.41
65864;SHT30;52639;51.180;20.460;2022-12-17T01:32:14;-3.99;98.38
65864;SHT30;52639;51.180;20.460;2022-12-17T01:36:34;-3.99;98.36
65864;SHT30;52639;51.180;20.460;2022-12-17T01:40:53;-3.99;98.45
65864;SHT30;52639;51.180;20.460;2022-12-17T01:45:14;-3.96;98.28
65864;SHT30;52639;51.180;20.460;2022-12-17T01:49:35;-3.99;98.28
65864;SHT30;52639;51.180;20.460;2022-12-17T01:53:55;-4.01;98.16
65864;SHT30;52639;51.180;20.460;2022-12-17T01:58:16;-3.99;98.10
65864;SHT30;52639;51.180;20.460;2022-12-17T02:02:36;-4.01;98.37
65864;SHT30;52639;51.180;20.460;2022-12-17T02:07:11;-4.05;98.26
65864;SHT30;52639;51.180;20.460;2022-12-17T02:11:38;-4.06;98.50
65864;SHT30;52639;51.180;20.460;2022-12-17T02:16:07;-4.01;98.43
65864;SHT30;52639;51.180;20.460;2022-12-17T02:20:32;-4.01;98.41
65864;SHT30;52639;51.180;20.460;2022-12-17T02:24:56;-4.03;98.52
65864;SHT30;52639;51.180;20.460;2022-12-17T02:29:23;-4.08;98.60
65864;SHT30;52639;51.180;20.460;2022-12-17T02:33:44;-4.08;98.91
65864;SHT30;52639;51.180;20.460;2022-12-17T02:38:16;-4.08;98.75
65864;SHT30;52639;51.180;20.460;2022-12-17T02:42:36;-4.09;98.92
65864;SHT30;52639;51.180;20.460;2022-12-17T02:46:59;-4.08;98.84
65864;SHT30;52639;51.180;20.460;2022-12-17T02:51:21;-4.09;98.93
65864;SHT30;52639;51.180;20.460;2022-12-17T02:55:41;-4.12;98.93
65864;SHT30;52639;51.180;20.460;2022-12-17T03:00:01;-4.10;98.86
65864;SHT30;52639;51.180;20.460;2022-12-17T03:04:22;-4.10;98.86
65864;SHT30;52639;51.180;20.460;2022-12-17T03:08:42;-4.09;98.70
65864;SHT30;52639;51.180;20.460;2022-12-17T03:13:02;-4.13;98.68
65864;SHT30;52639;51.180;20.460;2022-12-17T03:17:22;-4.12;98.78
65864;SHT30;52639;51.180;20.460;2022-12-17T03:21:58;-4.13;98.54
65864;SHT30;52639;51.180;20.460;2022-12-17T03:26:18;-4.12;98.52
65864;SHT30;52639;51.180;20.460;2022-12-17T03:30:37;-4.13;98.56
65864;SHT30;52639;51.180;20.460;2022-12-17T03:34:57;-4.15;98.39
65864;SHT30;52639;51.180;20.460;2022-12-17T03:39:24;-4.16;98.40
65864;SHT30;52639;51.180;20.460;2022-12-17T03:43:43;-4.12;98.33
65864;SHT30;52639;51.180;20.460;2022-12-17T03:48:05;-4.10;98.36
65864;SHT30;52639;51.180;20.460;2022-12-17T03:52:26;-4.09;98.22
65864;SHT30;52639;51.180;20.460;2022-12-17T03:56:48;-4.05;98.18
65864;SHT30;52639;51.180;20.460;2022-12-17T04:01:08;-4.03;98.16
65864;SHT30;52639;51.180;20.460;2022-12-17T04:05:31;-4.01;97.97
65864;SHT30;52639;51.180;20.460;2022-12-17T04:09:50;-4.01;98.06
65864;SHT30;52639;51.180;20.460;2022-12-17T04:14:12;-4.02;97.78
65864;SHT30;52639;51.180;20.460;2022-12-17T04:18:32;-4.01;97.86
65864;SHT30;52639;51.180;20.460;2022-12-17T04:22:52;-4.05;97.83
65864;SHT30;52639;51.180;20.460;2022-12-17T04:27:20;-4.06;97.84
65864;SHT30;52639;51.180;20.460;2022-12-17T04:31:42;-4.06;97.87
65864;SHT30;52639;51.180;20.460;2022-12-17T04:35:58;-4.08;97.81
65864;SHT30;52639;51.180;20.460;2022-12-17T04:40:20;-4.13;97.82
65864;SHT30;52639;51.180;20.460;2022-12-17T04:44:40;-4.15;97.97
65864;SHT30;52639;51.180;20.460;2022-12-17T04:49:02;-4.16;97.86
65864;SHT30;52639;51.180;20.460;2022-12-17T04:53:34;-4.16;97.86
65864;SHT30;52639;51.180;20.460;2022-12-17T04:57:53;-4.16;97.93
65864;SHT30;52639;51.180;20.460;2022-12-17T05:02:14;-4.19;98.05
65864;SHT30;52639;51.180;20.460;2022-12-17T05:06:35;-4.19;97.97
65864;SHT30;52639;51.180;20.460;2022-12-17T05:11:00;-4.20;98.12
65864;SHT30;52639;51.180;20.460;2022-12-17T05:15:20;-4.19;97.91
65864;SHT30;52639;51.180;20.460;2022-12-17T05:19:40;-4.19;97.94
65864;SHT30;52639;51.180;20.460;2022-12-17T05:24:01;-4.23;97.90
65864;SHT30;52639;51.180;20.460;2022-12-17T05:28:21;-4.25;97.91
65864;SHT30;52639;51.180;20.460;2022-12-17T05:32:59;-4.25;97.95
65864;SHT30;52639;51.180;20.460;2022-12-17T05:37:20;-4.26;97.97
65864;SHT30;52639;51.180;20.460;2022-12-17T05:41:41;-4.28;97.91
65864;SHT30;52639;51.180;20.460;2022-12-17T05:46:01;-4.28;97.81
65864;SHT30;52639;51.180;20.460;2022-12-17T05:50:21;-4.29;97.82
65864;SHT30;52639;51.180;20.460;2022-12-17T05:54:41;-4.30;97.84
65864;SHT30;52639;51.180;20.460;2022-12-17T05:59:02;-4.29;97.85
65864;SHT30;52639;51.180;20.460;2022-12-17T06:03:22;-4.28;97.88
65864;SHT30;52639;51.180;20.460;2022-12-17T06:07:42;-4.28;97.85
65864;SHT30;52639;51.180;20.460;2022-12-17T06:12:02;-4.25;97.83
65864;SHT30;52639;51.180;20.460;2022-12-17T06:16:24;-4.23;97.87
65864;SHT30;52639;51.180;20.460;2022-12-17T06:20:51;-4.26;97.76
65864;SHT30;52639;51.180;20.460;2022-12-17T06:25:11;-4.28;97.79
65864;SHT30;52639;51.180;20.460;2022-12-17T06:29:31;-4.30;97.71
65864;SHT30;52639;51.180;20.460;2022-12-17T06:33:52;-4.30;97.85
65864;SHT30;52639;51.180;20.460;2022-12-17T06:38:12;-4.29;97.80
65864;SHT30;52639;51.180;20.460;2022-12-17T06:42:32;-4.33;97.79
65864;SHT30;52639;51.180;20.460;2022-12-17T06:47:04;-4.33;97.76
65864;SHT30;52639;51.180;20.460;2022-12-17T06:51:25;-4.33;97.90
65864;SHT30;52639;51.180;20.460;2022-12-17T06:55:46;-4.37;97.78
65864;SHT30;52639;51.180;20.460;2022-12-17T07:00:07;-4.43;97.81
65864;SHT30;52639;51.180;20.460;2022-12-17T07:04:27;-4.39;97.83
65864;SHT30;52639;51.180;20.460;2022-12-17T07:08:49;-4.37;97.86
65864;SHT30;52639;51.180;20.460;2022-12-17T07:13:09;-4.34;97.90
65864;SHT30;52639;51.180;20.460;2022-12-17T07:17:29;-4.20;97.90
65864;SHT30;52639;51.180;20.460;2022-12-17T07:21:49;-4.20;97.40
65864;SHT30;52639;51.180;20.460;2022-12-17T07:26:10;-4.23;97.43
65864;SHT30;52639;51.180;20.460;2022-12-17T07:30:30;-4.19;97.50
65864;SHT30;52639;51.180;20.460;2022-12-17T07:34:49;-4.16;97.78
65864;SHT30;52639;51.180;20.460;2022-12-17T07:39:10;-4.16;97.58
65864;SHT30;52639;51.180;20.460;2022-12-17T07:43:31;-4.20;97.37
65864;SHT30;52639;51.180;20.460;2022-12-17T07:47:54;-4.23;96.82
65864;SHT30;52639;51.180;20.460;2022-12-17T07:52:14;-4.22;97.25
65864;SHT30;52639;51.180;20.460;2022-12-17T07:56:35;-4.13;97.31
65864;SHT30;52639;51.180;20.460;2022-12-17T08:00:52;-4.15;96.88
65864;SHT30;52639;51.180;20.460;2022-12-17T08:05:13;-4.16;97.10
65864;SHT30;52639;51.180;20.460;2022-12-17T08:09:32;-4.13;97.04
65864;SHT30;52639;51.180;20.460;2022-12-17T08:13:53;-4.16;96.70
65864;SHT30;52639;51.180;20.460;2022-12-17T08:18:24;-4.18;96.21
65864;SHT30;52639;51.180;20.460;2022-12-17T08:22:40;-4.05;96.45
65864;SHT30;52639;51.180;20.460;2022-12-17T08:27:00;-3.92;96.14
65864;SHT30;52639;51.180;20.460;2022-12-17T08:31:24;-3.79;96.46
65864;SHT30;52639;51.180;20.460;2022-12-17T08:35:52;-3.77;96.31
65864;SHT30;52639;51.180;20.460;2022-12-17T08:40:12;-3.78;95.93
65864;SHT30;52639;51.180;20.460;2022-12-17T08:44:33;-3.64;95.74
65864;SHT30;52639;51.180;20.460;2022-12-17T08:48:59;-3.60;94.79
65864;SHT30;52639;51.180;20.460;2022-12-17T08:53:24;-3.54;95.60
65864;SHT30;52639;51.180;20.460;2022-12-17T08:57:51;-3.47;95.06
65864;SHT30;52639;51.180;20.460;2022-12-17T09:02:11;-3.60;94.58
65864;SHT30;52639;51.180;20.460;2022-12-17T09:06:32;-3.65;94.26
65864;SHT30;52639;51.180;20.460;2022-12-17T09:10:54;-3.58;94.52
65864;SHT30;52639;51.180;20.460;2022-12-17T09:15:14;-3.86;93.59
65864;SHT30;52639;51.180;20.460;2022-12-17T09:19:34;-4.02;94.59
65864;SHT30;52639;51.180;20.460;2022-12-17T09:23:56;-3.91;94.95
65864;SHT30;52639;51.180;20.460;2022-12-17T09:28:18;-3.89;95.25
65864;SHT30;52639;51.180;20.460;2022-12-17T09:32:40;-3.72;95.86
65864;SHT30;52639;51.180;20.460;2022-12-17T09:37:00;-3.58;95.30
65864;SHT30;52639;51.180;20.460;2022-12-17T09:41:25;-3.39;95.71
65864;SHT30;52639;51.180;20.460;2022-12-17T09:45:54;-3.23;94.49
65864;SHT30;52639;51.180;20.460;2022-12-17T09:50:18;-2.95;94.06
65864;SHT30;52639;51.180;20.460;2022-12-17T09:54:41;-3.09;93.28
65864;SHT30;52639;51.180;20.460;2022-12-17T09:59:08;-2.87;94.22
65864;SHT30;52639;51.180;20.460;2022-12-17T10:03:35;-3.10;92.57
65864;SHT30;52639;51.180;20.460;2022-12-17T10:07:57;-3.24;93.31
65864;SHT30;52639;51.180;20.460;2022-12-17T10:12:18;-3.43;92.31
65864;SHT30;52639;51.180;20.460;2022-12-17T10:16:42;-3.10;94.29
65864;SHT30;52639;51.180;20.460;2022-12-17T10:21:11;-2.86;92.70
65864;SHT30;52639;51.180;20.460;2022-12-17T10:25:33;-2.73;91.01
65864;SHT30;52639;51.180;20.460;2022-12-17T10:29:54;-2.70;90.44
65864;SHT30;52639;51.180;20.460;2022-12-17T10:34:16;-2.63;89.77
65864;SHT30;52639;51.180;20.460;2022-12-17T10:38:53;-2.70;89.80
65864;SHT30;52639;51.180;20.460;2022-12-17T10:43:25;-2.85;91.40
65864;SHT30;52639;51.180;20.460;2022-12-17T10:47:45;-2.95;88.90
65864;SHT30;52639;51.180;20.460;2022-12-17T10:52:17;-3.36;90.27
65864;SHT30;52639;51.180;20.460;2022-12-17T10:56:41;-3.46;91.29
65864;SHT30;52639;51.180;20.460;2022-12-17T11:01:09;-3.65;91.00
65864;SHT30;52639;51.180;20.460;2022-12-17T11:05:34;-3.44;90.88
65864;SHT30;52639;51.180;20.460;2022-12-17T11:09:57;-3.40;90.62
65864;SHT30;52639;51.180;20.460;2022-12-17T11:14:20;-3.43;90.07
65864;SHT30;52639;51.180;20.460;2022-12-17T11:18:47;-3.40;90.67
65864;SHT30;52639;51.180;20.460;2022-12-17T11:23:15;-3.44;90.35
65864;SHT30;52639;51.180;20.460;2022-12-17T11:27:41;-3.37;91.43
65864;SHT30;52639;51.180;20.460;2022-12-17T11:32:16;-3.52;92.15
65864;SHT30;52639;51.180;20.460;2022-12-17T11:36:43;-3.41;92.64
65864;SHT30;52639;51.180;20.460;2022-12-17T11:41:09;-3.48;91.65
65864;SHT30;52639;51.180;20.460;2022-12-17T11:45:36;-3.27;92.43
65864;SHT30;52639;51.180;20.460;2022-12-17T11:50:04;-3.33;92.08
65864;SHT30;52639;51.180;20.460;2022-12-17T11:54:34;-3.30;92.53
65864;SHT30;52639;51.180;20.460;2022-12-17T11:58:59;-3.34;93.15
65864;SHT30;52639;51.180;20.460;2022-12-17T12:03:31;-3.27;92.28
65864;SHT30;52639;51.180;20.460;2022-12-17T12:08:02;-3.24;92.30
65864;SHT30;52639;51.180;20.460;2022-12-17T12:12:35;-3.33;92.64
65864;SHT30;52639;51.180;20.460;2022-12-17T12:17:02;-3.48;91.08
65864;SHT30;52639;51.180;20.460;2022-12-17T12:21:37;-3.48;92.31
65864;SHT30;52639;51.180;20.460;2022-12-17T12:26:04;-3.47;92.10
65864;SHT30;52639;51.180;20.460;2022-12-17T12:30:31;-3.64;92.26
65864;SHT30;52639;51.180;20.460;2022-12-17T12:34:53;-3.78;92.28
65864;SHT30;52639;51.180;20.460;2022-12-17T12:39:18;-3.82;92.74
65864;SHT30;52639;51.180;20.460;2022-12-17T12:43:46;-4.01;92.48
65864;SHT30;52639;51.180;20.460;2022-12-17T12:48:11;-3.89;93.31
65864;SHT30;52639;51.180;20.460;2022-12-17T12:52:32;-3.92;92.45
65864;SHT30;52639;51.180;20.460;2022-12-17T12:56:52;-3.91;93.49
65864;SHT30;52639;51.180;20.460;2022-12-17T13:01:14;-3.94;93.02
65864;SHT30;52639;51.180;20.460;2022-12-17T13:05:42;-4.03;93.62
65864;SHT30;52639;51.180;20.460;2022-12-17T13:09:48;-4.16;93.25
65864;SHT30;52639;51.180;20.460;2022-12-17T13:13:55;-4.16;93.63
65864;SHT30;52639;51.180;20.460;2022-12-17T13:18:14;-4.19;93.60
65864;SHT30;52639;51.180;20.460;2022-12-17T13:22:27;-4.26;93.78
65864;SHT30;52639;51.180;20.460;2022-12-17T13:26:42;-4.36;93.86
65864;SHT30;52639;51.180;20.460;2022-12-17T13:30:45;-4.30;94.14
65864;SHT30;52639;51.180;20.460;2022-12-17T13:35:00;-4.45;93.93
65864;SHT30;52639;51.180;20.460;2022-12-17T13:39:24;-4.56;94.28
65864;SHT30;52639;51.180;20.460;2022-12-17T13:43:38;-4.63;94.71
65864;SHT30;52639;51.180;20.460;2022-12-17T13:47:43;-4.69;94.54
65864;SHT30;52639;51.180;20.460;2022-12-17T13:52:04;-4.73;95.16
65864;SHT30;52639;51.180;20.460;2022-12-17T13:56:09;-4.80;95.18
65864;SHT30;52639;51.180;20.460;2022-12-17T14:00:19;-4.74;95.15
65864;SHT30;52639;51.180;20.460;2022-12-17T14:04:24;-4.85;95.15
65864;SHT30;52639;51.180;20.460;2022-12-17T14:08:31;-4.84;95.40
65864;SHT30;52639;51.180;20.460;2022-12-17T14:12:35;-4.88;95.21
65864;SHT30;52639;51.180;20.460;2022-12-17T14:16:39;-4.93;95.52
65864;SHT30;52639;51.180;20.460;2022-12-17T14:20:51;-4.95;95.75
65864;SHT30;52639;51.180;20.460;2022-12-17T14:24:58;-4.98;95.83
65864;SHT30;52639;51.180;20.460;2022-12-17T14:29:11;-5.00;95.91
65864;SHT30;52639;51.180;20.460;2022-12-17T14:33:26;-5.05;95.96
65864;SHT30;52639;51.180;20.460;2022-12-17T14:37:32;-5.04;96.05
65864;SHT30;52639;51.180;20.460;2022-12-17T14:41:38;-5.08;96.11
65864;SHT30;52639;51.180;20.460;2022-12-17T14:46:15;-5.08;96.18
65864;SHT30;52639;51.180;20.460;2022-12-17T14:50:28;-5.05;96.30
65864;SHT30;52639;51.180;20.460;2022-12-17T14:54:34;-5.07;96.34
65864;SHT30;52639;51.180;20.460;2022-12-17T14:58:44;-5.09;96.45
65864;SHT30;52639;51.180;20.460;2022-12-17T15:02:51;-5.04;96.54
65864;SHT30;52639;51.180;20.460;2022-12-17T15:06:56;-5.08;96.44
65864;SHT30;52639;51.180;20.460;2022-12-17T15:10:58;-5.17;96.27
65864;SHT30;52639;51.180;20.460;2022-12-17T15:15:04;-5.31;96.36
65864;SHT30;52639;51.180;20.460;2022-12-17T15:19:08;-5.38;96.50
65864;SHT30;52639;51.180;20.460;2022-12-17T15:23:17;-5.39;96.79
65864;SHT30;52639;51.180;20.460;2022-12-17T15:27:21;-5.39;96.98
65864;SHT30;52639;51.180;20.460;2022-12-17T15:31:25;-5.45;96.76
65864;SHT30;52639;51.180;20.460;2022-12-17T15:35:28;-5.52;96.60
65864;SHT30;52639;51.180;20.460;2022-12-17T15:39:35;-5.63;96.56
65864;SHT30;52639;51.180;20.460;2022-12-17T15:43:38;-5.73;96.56
65864;SHT30;52639;51.180;20.460;2022-12-17T15:47:43;-5.78;96.64
65864;SHT30;52639;51.180;20.460;2022-12-17T15:51:46;-5.78;96.65
65864;SHT30;52639;51.180;20.460;2022-12-17T15:55:49;-5.79;96.66
65864;SHT30;52639;51.180;20.460;2022-12-17T15:59:51;-5.78;96.66
65864;SHT30;52639;51.180;20.460;2022-12-17T16:03:56;-5.79;96.65
65864;SHT30;52639;51.180;20.460;2022-12-17T16:07:59;-5.78;96.62
65864;SHT30;52639;51.180;20.460;2022-12-17T16:12:03;-5.76;96.74
65864;SHT30;52639;51.180;20.460;2022-12-17T16:16:12;-5.80;96.68
65864;SHT30;52639;51.180;20.460;2022-12-17T16:20:17;-5.82;96.69
65864;SHT30;52639;51.180;20.460;2022-12-17T16:24:23;-5.83;96.67
65864;SHT30;52639;51.180;20.460;2022-12-17T16:28:27;-5.82;96.73
65864;SHT30;52639;51.180;20.460;2022-12-17T16:32:30;-5.83;96.69
65864;SHT30;52639;51.180;20.460;2022-12-17T16:36:39;-5.83;96.72
65864;SHT30;52639;51.180;20.460;2022-12-17T16:40:47;-5.83;96.62
65864;SHT30;52639;51.180;20.460;2022-12-17T16:44:49;-5.85;96.69
65864;SHT30;52639;51.180;20.460;2022-12-17T16:48:54;-5.90;96.55
65864;SHT30;52639;51.180;20.460;2022-12-17T16:53:00;-5.94;96.45
65864;SHT30;52639;51.180;20.460;2022-12-17T16:57:04;-5.90;96.76
65864;SHT30;52639;51.180;20.460;2022-12-17T17:01:09;-5.94;96.64
65864;SHT30;52639;51.180;20.460;2022-12-17T17:05:15;-6.00;96.58
65864;SHT30;52639;51.180;20.460;2022-12-17T17:09:26;-6.00;96.71
65864;SHT30;52639;51.180;20.460;2022-12-17T17:13:30;-6.06;96.67
65864;SHT30;52639;51.180;20.460;2022-12-17T17:17:33;-6.07;96.90
65864;SHT30;52639;51.180;20.460;2022-12-17T17:21:36;-6.10;96.83
65864;SHT30;52639;51.180;20.460;2022-12-17T17:25:42;-6.09;96.98
65864;SHT30;52639;51.180;20.460;2022-12-17T17:29:46;-6.15;96.80
65864;SHT30;52639;51.180;20.460;2022-12-17T17:33:51;-6.18;96.94
65864;SHT30;52639;51.180;20.460;2022-12-17T17:37:55;-6.23;97.02
65864;SHT30;52639;51.180;20.460;2022-12-17T17:42:00;-6.21;96.94
65864;SHT30;52639;51.180;20.460;2022-12-17T17:46:05;-6.24;97.03
65864;SHT30;52639;51.180;20.460;2022-12-17T17:50:10;-6.25;97.23
65864;SHT30;52639;51.180;20.460;2022-12-17T17:54:14;-6.27;97.08
65864;SHT30;52639;51.180;20.460;2022-12-17T17:58:23;-6.30;97.32
65864;SHT30;52639;51.180;20.460;2022-12-17T18:02:27;-6.28;97.42
65864;SHT30;52639;51.180;20.460;2022-12-17T18:06:32;-6.23;97.34
65864;SHT30;52639;51.180;20.460;2022-12-17T18:10:37;-6.24;97.43
65864;SHT30;52639;51.180;20.460;2022-12-17T18:14:44;-6.23;97.26
65864;SHT30;52639;51.180;20.460;2022-12-17T18:18:49;-6.23;97.26
65864;SHT30;52639;51.180;20.460;2022-12-17T18:22:53;-6.24;97.25
65864;SHT30;52639;51.180;20.460;2022-12-17T18:26:58;-6.23;97.22
65864;SHT30;52639;51.180;20.460;2022-12-17T18:31:10;-6.23;97.24
65864;SHT30;52639;51.180;20.460;2022-12-17T18:35:13;-6.24;97.12
65864;SHT30;52639;51.180;20.460;2022-12-17T18:39:18;-6.30;97.06
65864;SHT30;52639;51.180;20.460;2022-12-17T18:43:22;-6.35;96.96
65864;SHT30;52639;51.180;20.460;2022-12-17T18:47:28;-6.40;97.14
65864;SHT30;52639;51.180;20.460;2022-12-17T18:51:35;-6.40;97.05
65864;SHT30;52639;51.180;20.460;2022-12-17T18:55:48;-6.47;97.01
65864;SHT30;52639;51.180;20.460;2022-12-17T19:00:02;-6.54;96.98
65864;SHT30;52639;51.180;20.460;2022-12-17T19:04:24;-6.60;96.85
65864;SHT30;52639;51.180;20.460;2022-12-17T19:08:44;-6.62;97.05
65864;SHT30;52639;51.180;20.460;2022-12-17T19:12:51;-6.62;97.12
65864;SHT30;52639;51.180;20.460;2022-12-17T19:16:59;-6.67;96.96
65864;SHT30;52639;51.180;20.460;2022-12-17T19:21:16;-6.64;97.16
65864;SHT30;52639;51.180;20.460;2022-12-17T19:25:24;-6.65;97.12
65864;SHT30;52639;51.180;20.460;2022-12-17T19:29:28;-6.72;96.98
65864;SHT30;52639;51.180;20.460;2022-12-17T19:33:30;-6.71;97.09
65864;SHT30;52639;51.180;20.460;2022-12-17T19:37:35;-6.75;97.10
65864;SHT30;52639;51.180;20.460;2022-12-17T19:41:40;-6.69;97.20
65864;SHT30;52639;51.180;20.460;2022-12-17T19:45:44;-6.68;97.11
65864;SHT30;52639;51.180;20.460;2022-12-17T19:49:48;-6.65;97.23
65864;SHT30;52639;51.180;20.460;2022-12-17T19:53:59;-6.64;97.10
65864;SHT30;52639;51.180;20.460;2022-12-17T19:58:03;-6.69;97.37
65864;SHT30;52639;51.180;20.460;2022-12-17T20:02:08;-6.64;97.49
65864;SHT30;52639;51.180;20.460;2022-12-17T20:06:13;-6.61;97.53
65864;SHT30;52639;51.180;20.460;2022-12-17T20:10:26;-6.54;97.47
65864;SHT30;52639;51.180;20.460;2022-12-17T20:14:40;-6.52;97.54
65864;SHT30;52639;51.180;20.460;2022-12-17T20:18:44;-6.55;97.89
65864;SHT30;52639;51.180;20.460;2022-12-17T20:22:49;-6.51;97.92
65864;SHT30;52639;51.180;20.460;2022-12-17T20:26:54;-6.47;97.92
65864;SHT30;52639;51.180;20.460;2022-12-17T20:30:57;-6.41;98.02
65864;SHT30;52639;51.180;20.460;2022-12-17T20:35:05;-6.38;98.11
65864;SHT30;52639;51.180;20.460;2022-12-17T20:39:08;-6.37;98.02
65864;SHT30;52639;51.180;20.460;2022-12-17T20:43:13;-6.30;98.08
65864;SHT30;52639;51.180;20.460;2022-12-17T20:47:17;-6.23;98.13
65864;SHT30;52639;51.180;20.460;2022-12-17T20:51:22;-6.21;98.07
65864;SHT30;52639;51.180;20.460;2022-12-17T20:55:26;-6.14;97.99
65864;SHT30;52639;51.180;20.460;2022-12-17T20:59:31;-6.10;97.98
65864;SHT30;52639;51.180;20.460;2022-12-17T21:03:36;-6.02;97.97
65864;SHT30;52639;51.180;20.460;2022-12-17T21:07:42;-6.02;98.13
65864;SHT30;52639;51.180;20.460;2022-12-17T21:11:46;-5.96;98.05
65864;SHT30;52639;51.180;20.460;2022-12-17T21:15:51;-5.92;98.13
65864;SHT30;52639;51.180;20.460;2022-12-17T21:19:58;-5.87;98.10
65864;SHT30;52639;51.180;20.460;2022-12-17T21:24:05;-5.83;97.98
65864;SHT30;52639;51.180;20.460;2022-12-17T21:28:08;-5.80;97.76
65864;SHT30;52639;51.180;20.460;2022-12-17T21:32:13;-5.76;97.87
65864;SHT30;52639;51.180;20.460;2022-12-17T21:36:18;-5.68;97.82
65864;SHT30;52639;51.180;20.460;2022-12-17T21:40:20;-5.68;97.79
65864;SHT30;52639;51.180;20.460;2022-12-17T21:44:23;-5.62;97.85
65864;SHT30;52639;51.180;20.460;2022-12-17T21:48:28;-5.58;97.74
65864;SHT30;52639;51.180;20.460;2022-12-17T21:52:31;-5.54;97.86
65864;SHT30;52639;51.180;20.460;2022-12-17T21:56:34;-5.48;97.81
65864;SHT30;52639;51.180;20.460;2022-12-17T22:00:38;-5.42;97.82
65864;SHT30;52639;51.180;20.460;2022-12-17T22:04:42;-5.40;97.75
65864;SHT30;52639;51.180;20.460;2022-12-17T22:08:47;-5.35;97.75
65864;SHT30;52639;51.180;20.460;2022-12-17T22:12:49;-5.34;97.68
65864;SHT30;52639;51.180;20.460;2022-12-17T22:17:10;-5.31;97.69
65864;SHT30;52639;51.180;20.460;2022-12-17T22:21:14;-5.27;97.65
65864;SHT30;52639;51.180;20.460;2022-12-17T22:25:17;-5.22;97.67
65864;SHT30;52639;51.180;20.460;2022-12-17T22:29:21;-5.18;97.67
65864;SHT30;52639;51.180;20.460;2022-12-17T22:33:37;-5.14;97.71
65864;SHT30;52639;51.180;20.460;2022-12-17T22:37:42;-5.09;97.62
65864;SHT30;52639;51.180;20.460;2022-12-17T22:41:44;-5.07;97.63
65864;SHT30;52639;51.180;20.460;2022-12-17T22:46:05;-5.07;97.82
65864;SHT30;52639;51.180;20.460;2022-12-17T22:50:08;-5.04;97.71
65864;SHT30;52639;51.180;20.460;2022-12-17T22:54:13;-5.03;97.70
65864;SHT30;52639;51.180;20.460;2022-12-17T22:58:16;-5.00;97.72
65864;SHT30;52639;51.180;20.460;2022-12-17T23:02:19;-5.00;97.70
65864;SHT30;52639;51.180;20.460;2022-12-17T23:06:22;-4.94;97.70
65864;SHT30;52639;51.180;20.460;2022-12-17T23:10:27;-4.95;97.59
65864;SHT30;52639;51.180;20.460;2022-12-17T23:14:30;-4.93;97.66
65864;SHT30;52639;51.180;20.460;2022-12-17T23:18:32;-4.91;97.63
65864;SHT30;52639;51.180;20.460;2022-12-17T23:22:35;-4.90;97.50
65864;SHT30;52639;51.180;20.460;2022-12-17T23:26:39;-4.93;97.39
65864;SHT30;52639;51.180;20.460;2022-12-17T23:30:42;-4.93;97.38
65864;SHT30;52639;51.180;20.460;2022-12-17T23:34:44;-4.90;97.19
65864;SHT30;52639;51.180;20.460;2022-12-17T23:38:48;-4.90;97.07
65864;SHT30;52639;51.180;20.460;2022-12-17T23:42:52;-4.90;97.00
65864;SHT30;52639;51.180;20.460;2022-12-17T23:46:57;-4.90;96.95
65864;SHT30;52639;51.180;20.460;2022-12-17T23:51:00;-4.90;96.90
65864;SHT30;52639;51.180;20.460;2022-12-17T23:55:04;-4.91;96.77
65864;SHT30;52639;51.180;20.460;2022-12-17T23:59:08;-4.93;96.69
